createdAt,value
2022-10-25T00:01:27.814Z,2.80
2022-10-25T00:03:54.655Z,2.47
2022-10-25T00:06:21.820Z,2.28
2022-10-25T00:08:48.591Z,2.60
2022-10-25T00:11:23.831Z,2.30
2022-10-25T00:13:51.553Z,2.17
2022-10-25T00:16:21.300Z,2.07
2022-10-25T00:18:48.372Z,2.20
2022-10-25T00:21:14.930Z,1.83
2022-10-25T00:23:41.610Z,2.15
2022-10-25T00:26:09.808Z,2.10
2022-10-25T00:28:36.646Z,2.00
2022-10-25T00:31:08.230Z,1.88
2022-10-25T00:33:36.619Z,2.20
2022-10-25T00:36:08.300Z,2.75
2022-10-25T00:38:35.315Z,2.83
2022-10-25T00:41:02.677Z,2.75
2022-10-25T00:43:39.744Z,2.88
2022-10-25T00:46:19.792Z,2.78
2022-10-25T00:49:03.099Z,3.33
2022-10-25T00:51:41.988Z,2.97
2022-10-25T00:54:11.506Z,2.80
2022-10-25T00:56:40.092Z,2.92
2022-10-25T01:01:34.731Z,2.38
2022-10-25T01:04:05.001Z,3.42
2022-10-25T01:06:37.384Z,3.35
2022-10-25T01:09:04.520Z,2.97
2022-10-25T01:11:31.060Z,3.60
2022-10-25T01:13:57.819Z,3.60
2022-10-25T01:16:48.672Z,3.65
2022-10-25T01:19:27.524Z,4.60
2022-10-25T01:21:57.712Z,4.47
2022-10-25T01:24:45.479Z,4.85
2022-10-25T01:27:41.748Z,5.15
2022-10-25T01:30:26.213Z,5.70
2022-10-25T01:33:11.329Z,6.10
2022-10-25T01:36:04.202Z,5.93
2022-10-25T01:38:43.020Z,7.25
2022-10-25T01:41:23.225Z,7.30
2022-10-25T01:44:12.650Z,7.03
2022-10-25T01:47:00.483Z,7.85
2022-10-25T01:49:37.715Z,7.30
2022-10-25T01:52:04.418Z,8.10
2022-10-25T01:54:31.121Z,7.95
2022-10-25T01:57:09.984Z,7.55
2022-10-25T01:59:43.277Z,7.70
2022-10-25T02:02:17.908Z,7.75
2022-10-25T02:05:06.072Z,6.80
2022-10-25T02:07:42.061Z,6.60
2022-10-25T02:10:20.952Z,6.90
2022-10-25T02:13:02.900Z,7.60
2022-10-25T02:15:37.554Z,6.05
2022-10-25T02:18:06.351Z,6.35
2022-10-25T02:20:35.365Z,6.13
2022-10-25T02:23:04.578Z,6.68
2022-10-25T02:25:34.159Z,6.80
2022-10-25T02:28:03.991Z,5.80
2022-10-25T02:30:32.840Z,6.63
2022-10-25T02:32:59.607Z,6.40
2022-10-25T02:35:26.182Z,6.35
2022-10-25T02:37:52.806Z,6.13
2022-10-25T02:40:19.622Z,6.00
2022-10-25T02:42:46.175Z,6.28
2022-10-25T02:45:12.796Z,6.22
2022-10-25T02:47:39.402Z,6.07
2022-10-25T02:50:06.317Z,6.40
2022-10-25T02:52:32.901Z,6.07
2022-10-25T02:54:59.465Z,7.13
2022-10-25T02:57:26.043Z,6.28
2022-10-25T02:59:52.600Z,7.05
2022-10-25T03:02:19.174Z,6.60
2022-10-25T03:04:45.831Z,7.68
2022-10-25T03:07:12.429Z,6.03
2022-10-25T03:09:38.962Z,6.43
2022-10-25T03:12:05.560Z,7.55
2022-10-25T03:14:32.106Z,5.50
2022-10-25T03:16:58.679Z,7.13
2022-10-25T03:19:25.247Z,6.35
2022-10-25T03:21:51.834Z,5.80
2022-10-25T03:24:18.443Z,6.85
2022-10-25T03:26:45.041Z,6.78
2022-10-25T03:29:11.652Z,5.85
2022-10-25T03:31:38.293Z,6.60
2022-10-25T03:34:04.831Z,6.00
2022-10-25T03:36:31.413Z,5.80
2022-10-25T03:38:58.047Z,5.43
2022-10-25T03:41:24.694Z,5.43
2022-10-25T03:43:51.281Z,5.05
2022-10-25T03:46:17.889Z,5.72
2022-10-25T03:48:44.450Z,5.47
2022-10-25T03:51:11.024Z,5.32
2022-10-25T03:53:37.547Z,5.03
2022-10-25T03:56:04.199Z,4.95
2022-10-25T03:58:30.727Z,5.45
2022-10-25T04:00:57.324Z,4.50
2022-10-25T04:03:24.243Z,4.63
2022-10-25T04:05:50.796Z,5.18
2022-10-25T04:08:17.356Z,4.50
2022-10-25T04:10:44.119Z,4.78
2022-10-25T04:13:10.669Z,5.00
2022-10-25T04:15:38.639Z,5.13
2022-10-25T04:18:05.514Z,4.55
2022-10-25T04:20:32.093Z,5.03
2022-10-25T04:22:58.654Z,4.70
2022-10-25T04:25:26.836Z,4.97
2022-10-25T04:27:53.598Z,4.70
2022-10-25T04:30:20.409Z,4.40
2022-10-25T04:32:47.301Z,5.22
2022-10-25T04:35:14.097Z,4.38
2022-10-25T04:37:40.639Z,5.20
2022-10-25T04:40:07.940Z,4.20
2022-10-25T04:42:35.103Z,5.20
2022-10-25T04:45:01.849Z,4.55
2022-10-25T04:47:31.554Z,5.15
2022-10-25T04:49:58.431Z,5.30
2022-10-25T04:52:25.110Z,5.00
2022-10-25T04:54:51.689Z,5.00
2022-10-25T04:57:18.244Z,5.47
2022-10-25T04:59:44.810Z,4.60
2022-10-25T05:02:12.470Z,4.80
2022-10-25T05:04:39.036Z,4.90
2022-10-25T05:07:05.596Z,4.18
2022-10-25T05:09:32.130Z,5.13
2022-10-25T05:11:58.673Z,4.90
2022-10-25T05:14:25.258Z,4.90
2022-10-25T05:16:51.848Z,4.88
2022-10-25T05:19:18.471Z,4.47
2022-10-25T05:21:44.991Z,4.20
2022-10-25T05:24:11.536Z,4.18
2022-10-25T05:26:38.156Z,3.78
2022-10-25T05:29:09.994Z,3.63
2022-10-25T05:31:38.640Z,4.32
2022-10-25T05:34:05.231Z,3.92
2022-10-25T05:36:33.444Z,3.65
2022-10-25T05:39:01.144Z,3.30
2022-10-25T05:41:30.701Z,3.90
2022-10-25T05:44:00.185Z,3.67
2022-10-25T05:46:27.026Z,3.75
2022-10-25T05:48:53.809Z,3.72
2022-10-25T05:51:34.229Z,3.90
2022-10-25T05:54:07.743Z,3.13
2022-10-25T05:56:35.107Z,3.28
2022-10-25T05:59:08.874Z,3.85
2022-10-25T06:01:40.179Z,3.80
2022-10-25T06:04:07.643Z,3.38
2022-10-25T06:06:35.251Z,3.42
2022-10-25T06:09:02.078Z,3.85
2022-10-25T06:11:28.933Z,4.30
2022-10-25T06:13:55.566Z,3.65
2022-10-25T06:16:22.573Z,3.08
2022-10-25T06:18:49.645Z,2.92
2022-10-25T06:21:18.268Z,3.53
2022-10-25T06:26:16.477Z,2.58
2022-10-25T06:28:43.613Z,3.38
2022-10-25T06:31:12.729Z,3.45
2022-10-25T06:33:39.777Z,3.08
2022-10-25T06:36:09.289Z,3.47
2022-10-25T06:38:35.877Z,3.17
2022-10-25T06:41:04.360Z,3.20
2022-10-25T06:43:31.691Z,3.70
2022-10-25T06:45:58.325Z,3.53
2022-10-25T06:48:24.964Z,3.85
2022-10-25T06:51:05.663Z,3.25
2022-10-25T06:53:32.930Z,3.58
2022-10-25T06:56:04.994Z,4.15
2022-10-25T06:58:34.278Z,3.70
2022-10-25T07:01:02.586Z,3.78
2022-10-25T07:03:34.758Z,3.63
2022-10-25T07:06:11.306Z,4.03
2022-10-25T07:08:43.034Z,3.50
2022-10-25T07:11:15.189Z,3.70
2022-10-25T07:13:42.236Z,3.28
2022-10-25T07:16:10.800Z,3.17
2022-10-25T07:21:06.787Z,3.38
2022-10-25T07:23:33.998Z,3.75
2022-10-25T07:26:00.813Z,3.22
2022-10-25T07:28:27.448Z,3.63
2022-10-25T07:30:54.199Z,3.65
2022-10-25T07:33:21.229Z,3.15
2022-10-25T07:36:05.995Z,4.05
2022-10-25T07:38:35.860Z,3.95
2022-10-25T07:41:02.447Z,3.28
2022-10-25T07:43:29.433Z,3.40
2022-10-25T07:45:56.304Z,3.45
2022-10-25T07:48:23.466Z,3.92
2022-10-25T07:50:50.064Z,3.60
2022-10-25T07:53:16.654Z,3.35
2022-10-25T07:55:43.249Z,3.90
2022-10-25T07:58:11.356Z,3.45
2022-10-25T08:00:38.142Z,3.60
2022-10-25T08:03:04.837Z,3.58
2022-10-25T08:05:31.442Z,3.67
2022-10-25T08:07:58.057Z,3.50
2022-10-25T08:10:24.597Z,3.22
2022-10-25T08:12:51.471Z,3.15
2022-10-25T08:15:18.600Z,3.65
2022-10-25T08:17:45.451Z,3.33
2022-10-25T08:20:12.317Z,3.50
2022-10-25T08:22:39.116Z,3.33
2022-10-25T08:25:06.304Z,4.47
2022-10-25T08:27:32.885Z,3.38
2022-10-25T08:29:59.504Z,3.42
2022-10-25T08:32:26.104Z,4.13
2022-10-25T08:34:52.660Z,3.72
2022-10-25T08:37:19.337Z,3.65
2022-10-25T08:39:45.887Z,3.50
2022-10-25T08:42:23.301Z,3.47
2022-10-25T08:44:57.843Z,3.85
2022-10-25T08:47:35.198Z,3.97
2022-10-25T08:50:11.742Z,3.72
2022-10-25T08:52:56.248Z,3.28
2022-10-25T08:55:31.709Z,4.00
2022-10-25T08:57:59.522Z,3.42
2022-10-25T09:00:31.972Z,4.07
2022-10-25T09:03:00.192Z,3.75
2022-10-25T09:05:40.052Z,3.40
2022-10-25T09:08:15.712Z,3.85
2022-10-25T09:11:18.322Z,3.83
2022-10-25T09:13:54.903Z,3.95
2022-10-25T09:16:33.583Z,4.45
2022-10-25T09:19:01.157Z,4.20
2022-10-25T09:21:31.270Z,4.35
2022-10-25T09:24:01.347Z,4.00
2022-10-25T09:26:27.844Z,3.70
2022-10-25T09:29:02.672Z,4.00
2022-10-25T09:31:32.877Z,3.75
2022-10-25T09:34:06.225Z,4.10
2022-10-25T09:36:46.745Z,3.53
2022-10-25T09:39:22.241Z,3.17
2022-10-25T09:41:53.146Z,3.97
2022-10-25T09:44:40.009Z,3.83
2022-10-25T09:47:21.755Z,3.25
2022-10-25T09:50:01.982Z,3.47
2022-10-25T09:52:33.804Z,3.47
2022-10-25T09:55:16.088Z,3.65
2022-10-25T09:57:42.979Z,4.05
2022-10-25T10:00:14.161Z,3.58
2022-10-25T10:02:41.396Z,3.92
2022-10-25T10:05:19.947Z,3.30
2022-10-25T10:10:18.099Z,2.50
2022-10-25T10:12:56.650Z,2.92
2022-10-25T10:15:27.233Z,2.88
2022-10-25T10:18:26.319Z,2.70
2022-10-25T10:21:06.662Z,2.40
2022-10-25T10:23:45.726Z,2.83
2022-10-25T10:26:34.127Z,2.88
2022-10-25T10:31:43.139Z,2.95
2022-10-25T10:34:44.097Z,2.75
2022-10-25T10:37:20.585Z,2.47
2022-10-25T10:40:00.115Z,2.40
2022-10-25T10:45:02.431Z,2.40
2022-10-25T10:47:34.765Z,2.53
2022-10-25T10:50:02.308Z,2.78
2022-10-25T10:52:37.001Z,2.85
2022-10-25T10:55:03.989Z,2.53
2022-10-25T10:57:32.820Z,2.25
2022-10-25T11:00:01.336Z,2.17
2022-10-25T11:05:23.864Z,2.33
2022-10-25T11:08:02.252Z,2.17
2022-10-25T11:10:31.079Z,2.53
2022-10-25T11:13:16.803Z,2.28
2022-10-25T11:16:23.091Z,2.20
2022-10-25T11:19:27.835Z,2.15
2022-10-25T11:22:10.380Z,2.03
2022-10-25T11:25:03.188Z,1.70
2022-10-25T11:27:38.624Z,1.80
2022-10-25T11:30:22.777Z,1.85
2022-10-25T11:33:05.741Z,1.40
2022-10-25T11:35:42.187Z,1.75
2022-10-25T11:38:20.852Z,1.55
2022-10-25T11:41:16.716Z,2.17
2022-10-25T11:44:12.552Z,2.20
2022-10-25T11:46:48.137Z,1.98
2022-10-25T11:49:34.791Z,1.90
2022-10-25T11:52:22.538Z,1.33
2022-10-25T11:55:04.369Z,1.50
2022-10-25T11:57:44.116Z,2.15
2022-10-25T12:00:16.927Z,2.00
2022-10-25T12:03:05.791Z,2.15
2022-10-25T12:05:44.773Z,2.00
2022-10-25T12:08:42.535Z,2.20
2022-10-25T12:11:18.743Z,2.30
2022-10-25T12:13:48.456Z,2.33
2022-10-25T12:16:17.160Z,2.00
2022-10-25T12:18:46.231Z,1.98
2022-10-25T12:21:18.471Z,1.95
2022-10-25T12:23:50.812Z,2.13
2022-10-25T12:26:33.409Z,2.10
2022-10-25T12:29:03.167Z,2.08
2022-10-25T12:31:39.053Z,2.50
2022-10-25T12:34:40.580Z,2.00
2022-10-25T12:37:31.311Z,2.20
2022-10-25T12:39:57.987Z,2.17
2022-10-25T12:42:49.474Z,2.58
2022-10-25T12:45:33.766Z,2.20
2022-10-25T12:48:26.559Z,2.65
2022-10-25T12:51:14.035Z,2.20
2022-10-25T12:54:08.829Z,2.22
2022-10-25T12:56:56.346Z,1.77
2022-10-25T12:59:44.265Z,2.00
2022-10-25T13:02:32.776Z,1.63
2022-10-25T13:05:25.811Z,1.40
2022-10-25T13:07:55.239Z,1.73
2022-10-25T13:10:23.538Z,1.50
2022-10-25T13:13:18.531Z,1.20
2022-10-25T13:15:48.245Z,2.03
2022-10-25T13:18:32.892Z,1.30
2022-10-25T13:21:05.011Z,1.30
2022-10-25T13:23:44.092Z,1.50
2022-10-25T13:26:13.194Z,1.80
2022-10-25T13:28:57.547Z,1.50
2022-10-25T13:31:36.177Z,2.05
2022-10-25T13:34:11.820Z,1.85
2022-10-25T13:36:55.376Z,1.45
2022-10-25T13:39:38.364Z,1.48
2022-10-25T13:42:21.108Z,1.30
2022-10-25T13:44:50.628Z,1.63
2022-10-25T13:47:38.673Z,1.08
2022-10-25T13:50:41.749Z,1.30
2022-10-25T13:53:14.380Z,1.42
2022-10-25T13:55:46.701Z,1.30
2022-10-25T13:58:31.280Z,1.50
2022-10-25T14:01:18.837Z,1.40
2022-10-25T14:04:22.394Z,1.70
2022-10-25T14:06:49.229Z,1.83
2022-10-25T14:09:36.433Z,1.48
2022-10-25T14:12:03.484Z,1.30
2022-10-25T14:14:47.433Z,1.52
2022-10-25T14:17:31.920Z,1.40
2022-10-25T14:20:02.712Z,1.50
2022-10-25T14:22:46.836Z,1.40
2022-10-25T14:25:23.192Z,1.20
2022-10-25T14:27:49.940Z,1.20
2022-10-25T14:33:01.465Z,1.48
2022-10-25T14:35:35.043Z,1.25
2022-10-25T14:38:15.919Z,1.13
2022-10-25T14:40:42.540Z,1.20
2022-10-25T14:43:22.242Z,1.10
2022-10-25T14:46:16.331Z,1.05
2022-10-25T14:48:47.834Z,1.50
2022-10-25T14:51:21.900Z,1.33
2022-10-25T14:54:01.779Z,1.40
2022-10-25T14:56:46.595Z,1.23
2022-10-25T14:59:30.149Z,1.23
2022-10-25T15:02:00.541Z,1.30
2022-10-25T15:04:35.818Z,1.10
2022-10-25T15:07:02.813Z,1.45
2022-10-25T15:09:42.267Z,1.42
2022-10-25T15:12:16.001Z,1.10
2022-10-25T15:14:43.063Z,1.45
2022-10-25T15:17:17.261Z,1.10
2022-10-25T15:20:01.013Z,1.40
2022-10-25T15:23:01.060Z,1.10
2022-10-25T15:25:33.054Z,0.98
2022-10-25T15:28:13.142Z,1.15
2022-10-25T15:30:57.987Z,1.75
2022-10-25T15:33:32.218Z,1.33
2022-10-25T15:36:04.367Z,1.92
2022-10-25T15:38:54.468Z,1.52
2022-10-25T15:41:20.215Z,1.10
2022-10-25T15:43:46.779Z,1.00
2022-10-25T15:46:25.235Z,1.00
2022-10-25T15:51:18.999Z,1.40
2022-10-25T15:53:45.560Z,1.00
2022-10-25T15:56:13.759Z,0.90
2022-10-25T15:58:40.323Z,1.63
2022-10-25T16:01:07.227Z,1.13
2022-10-25T16:03:33.960Z,1.10
2022-10-25T16:06:00.959Z,0.90
2022-10-25T16:08:27.634Z,1.00
2022-10-25T16:10:54.446Z,1.10
2022-10-25T16:13:30.436Z,1.33
2022-10-25T16:15:57.033Z,1.50
2022-10-25T16:20:58.024Z,1.20
2022-10-25T16:23:25.631Z,1.35
2022-10-25T16:25:53.552Z,1.30
2022-10-25T16:28:20.313Z,1.60
2022-10-25T16:30:47.487Z,2.28
2022-10-25T16:33:14.631Z,1.65
2022-10-25T16:35:41.656Z,1.77
2022-10-25T16:40:37.254Z,1.70
2022-10-25T16:43:05.259Z,1.85
2022-10-25T16:45:39.782Z,1.65
2022-10-25T16:48:06.656Z,2.00
2022-10-25T16:50:33.876Z,1.70
2022-10-25T16:53:02.446Z,1.95
2022-10-25T16:57:57.776Z,2.00
2022-10-25T17:00:24.779Z,2.30
2022-10-25T17:02:51.647Z,2.70
2022-10-25T17:05:26.020Z,2.75
2022-10-25T17:07:52.585Z,3.40
2022-10-25T17:10:19.954Z,3.00
2022-10-25T17:12:50.736Z,3.55
2022-10-25T17:15:18.433Z,4.40
2022-10-25T17:17:46.659Z,5.07
2022-10-25T17:22:41.364Z,3.33
2022-10-25T17:25:09.123Z,3.20
2022-10-25T17:27:38.133Z,2.97
2022-10-25T17:30:06.072Z,2.88
2022-10-25T17:32:32.643Z,3.17
2022-10-25T17:34:59.251Z,3.10
2022-10-25T17:37:25.902Z,2.72
2022-10-25T17:39:52.504Z,2.88
2022-10-25T17:42:20.251Z,2.90
2022-10-25T17:44:47.022Z,3.87
2022-10-25T17:47:14.949Z,3.15
2022-10-25T17:49:42.637Z,3.45
2022-10-25T17:52:09.843Z,2.90
2022-10-25T17:54:38.530Z,4.55
2022-10-25T17:57:05.923Z,8.38
2022-10-25T17:59:33.115Z,10.80
2022-10-25T18:01:59.823Z,14.20
2022-10-25T18:04:26.471Z,13.05
2022-10-25T18:06:53.129Z,9.43
2022-10-25T18:09:19.710Z,6.32
2022-10-25T18:11:46.302Z,4.80
2022-10-25T18:14:12.916Z,4.90
2022-10-25T18:16:41.394Z,4.85
2022-10-25T18:19:12.339Z,5.10
2022-10-25T18:21:38.959Z,5.40
2022-10-25T18:24:05.690Z,4.85
2022-10-25T18:26:32.927Z,5.47
2022-10-25T18:28:59.732Z,6.55
2022-10-25T18:31:27.226Z,7.03
2022-10-25T18:33:59.160Z,7.75
2022-10-25T18:36:27.464Z,8.77
2022-10-25T18:38:54.768Z,9.73
2022-10-25T18:41:26.776Z,8.90
2022-10-25T18:43:54.926Z,6.45
2022-10-25T18:46:21.904Z,5.97
2022-10-25T18:48:52.757Z,4.95
2022-10-25T18:51:20.847Z,4.68
2022-10-25T18:53:47.859Z,4.60
2022-10-25T18:56:19.532Z,4.28
2022-10-25T18:58:47.968Z,5.15
2022-10-25T19:01:17.299Z,4.57
2022-10-25T19:03:44.463Z,4.85
2022-10-25T19:06:11.154Z,5.05
2022-10-25T19:08:38.400Z,4.38
2022-10-25T19:11:06.765Z,4.70
2022-10-25T19:13:33.804Z,5.30
2022-10-25T19:16:00.786Z,5.70
2022-10-25T19:18:28.921Z,5.78
2022-10-25T19:21:03.470Z,5.55
2022-10-25T19:23:30.607Z,5.40
2022-10-25T19:25:57.300Z,5.47
2022-10-25T19:28:23.832Z,5.43
2022-10-25T19:30:50.391Z,5.85
2022-10-25T19:33:16.955Z,5.50
2022-10-25T19:35:43.531Z,6.03
2022-10-25T19:38:10.080Z,6.28
2022-10-25T19:40:36.624Z,5.25
2022-10-25T19:43:03.280Z,5.25
2022-10-25T19:45:29.876Z,6.55
2022-10-25T19:47:58.117Z,6.50
2022-10-25T19:50:24.946Z,7.32
2022-10-25T19:52:51.852Z,8.20
2022-10-25T19:55:18.396Z,9.30
2022-10-25T19:57:45.170Z,8.82
2022-10-25T20:00:13.608Z,9.27
2022-10-25T20:05:07.868Z,9.10
2022-10-25T20:07:34.592Z,9.40
2022-10-25T20:10:01.124Z,9.23
2022-10-25T20:12:30.480Z,10.40
2022-10-25T20:14:57.597Z,10.05
2022-10-25T20:17:24.440Z,10.20
2022-10-25T20:19:51.000Z,9.65
2022-10-25T20:22:17.623Z,10.35
2022-10-25T20:24:44.187Z,9.35
2022-10-25T20:27:10.709Z,9.70
2022-10-25T20:29:37.386Z,8.77
2022-10-25T20:32:04.056Z,8.65
2022-10-25T20:34:30.755Z,8.45
2022-10-25T20:36:57.344Z,9.25
2022-10-25T20:39:23.917Z,9.35
2022-10-25T20:41:50.459Z,8.00
2022-10-25T20:44:17.008Z,8.80
2022-10-25T20:46:43.613Z,9.43
2022-10-25T20:49:10.256Z,8.73
2022-10-25T20:51:38.026Z,8.68
2022-10-25T20:54:09.474Z,9.07
2022-10-25T20:56:37.298Z,9.55
2022-10-25T20:59:04.308Z,7.80
2022-10-25T21:01:30.915Z,8.57
2022-10-25T21:03:57.629Z,9.40
2022-10-25T21:06:24.730Z,9.82
2022-10-25T21:08:51.321Z,9.55
2022-10-25T21:11:18.669Z,9.10
2022-10-25T21:13:45.234Z,9.15
2022-10-25T21:16:14.198Z,9.07
2022-10-25T21:18:41.396Z,9.32
2022-10-25T21:21:11.001Z,7.78
2022-10-25T21:23:37.625Z,8.60
2022-10-25T21:26:07.395Z,8.32
2022-10-25T21:28:35.966Z,8.82
2022-10-25T21:33:36.636Z,9.38
2022-10-25T21:36:08.591Z,8.80
2022-10-25T21:38:35.295Z,9.07
2022-10-25T21:41:07.812Z,9.30
2022-10-25T21:43:34.771Z,8.77
2022-10-25T21:46:04.735Z,7.75
2022-10-25T21:48:31.306Z,9.00
2022-10-25T21:51:00.463Z,8.82
2022-10-25T21:53:27.205Z,8.75
2022-10-25T21:56:10.868Z,9.05
2022-10-25T21:58:41.443Z,9.45
2022-10-25T22:01:13.675Z,8.18
2022-10-25T22:03:40.769Z,8.95
2022-10-25T22:06:12.089Z,9.98
2022-10-25T22:08:38.944Z,10.23
2022-10-25T22:11:08.305Z,9.52
2022-10-25T22:13:35.249Z,9.15
2022-10-25T22:16:07.192Z,9.40
2022-10-25T22:18:34.060Z,8.85
2022-10-25T22:21:03.545Z,8.23
2022-10-25T22:23:31.232Z,10.23
2022-10-25T22:26:02.891Z,9.20
2022-10-25T22:28:30.028Z,9.48
2022-10-25T22:31:02.035Z,8.75
2022-10-25T22:33:29.899Z,9.80
2022-10-25T22:38:36.946Z,8.30
2022-10-25T22:41:05.538Z,8.88
2022-10-25T22:46:01.388Z,8.68
2022-10-25T22:48:35.331Z,8.63
2022-10-25T22:51:02.097Z,8.23
2022-10-25T22:53:28.896Z,8.35
2022-10-25T22:56:06.806Z,10.90
2022-10-25T22:58:35.292Z,10.27
2022-10-25T23:01:06.634Z,8.90
2022-10-25T23:03:41.547Z,10.00
2022-10-25T23:06:11.189Z,8.73
2022-10-25T23:08:37.752Z,14.75
2022-10-25T23:11:05.867Z,13.80
2022-10-25T23:13:34.305Z,11.10
2022-10-25T23:16:01.749Z,9.00
2022-10-25T23:18:28.588Z,8.32
2022-10-25T23:20:57.056Z,8.35
2022-10-25T23:23:24.269Z,9.50
2022-10-25T23:25:51.359Z,8.30
2022-10-25T23:28:17.938Z,7.45
2022-10-25T23:30:44.637Z,7.38
2022-10-25T23:33:12.442Z,7.47
2022-10-25T23:35:40.451Z,9.60
2022-10-25T23:38:08.772Z,7.72
2022-10-25T23:40:35.319Z,7.70
2022-10-25T23:43:01.907Z,7.55
2022-10-25T23:45:28.626Z,7.50
2022-10-25T23:47:55.199Z,7.18
2022-10-25T23:50:21.818Z,7.75
2022-10-25T23:52:48.564Z,7.00
2022-10-25T23:55:15.512Z,6.93
2022-10-25T23:57:42.756Z,7.03
